< < Back
Terminal Aerodrome Forecast


Current Version              Previous Versions:   1  2  3  4  5  6  7  8  9  

Terminal Aerodrome Forecast

734
FTUS44 KMOB 241000 AAB
TAFPNS
TAF AMD
KPNS 241031Z 2411/2506 00000KT P6SM SCT007
      TEMPO 2411/2412 1SM BR
     FM241500 18010KT P6SM FEW040 SCT250=

Latest METAR

865
SAUS70 KWBC 242100 RRD
MTRPNS
METAR KPNS 242053Z 17012KT 10SM CLR 24/17 A2994 RMK AO2 SLP141 T02440172
58014


USA.gov is the U.S. government's official web portal to all federal, state and local government web resources and services.